Terminal Aerodrome Forecast
Issued by NWS

Home | Current Version | Previous Version | Text Only | Print | Product List | Glossary On
Versions: 1 2 3 4 5 6 7 8 9 10 11 12 13 14 15
000
FTUS45 KVEF 011120
TAFEED
TAF
KEED 011120Z 0112/0212 24006KT P6SM VCSH FEW100 OVC150
     FM011500 06010KT P6SM VCTS FEW070CB SCT090 BKN110
      TEMPO 0115/0118 VRB10G20KT 6SM -TSRA FEW060CB SCT080 BKN100
     FM011800 20010KT P6SM VCTS SCT100CB BKN150
     FM020300 VRB06KT P6SM FEW100 BKN150=

USA.gov is the U.S. government's official web portal to all federal, state and local government web resources and services.